メインページ
METAR-TAF:

METAR-TAF

空港 :

メンドーサ, アルゼンチン

緯度: 32-50S, 経度: 068-47W, 海抜: 705m

現時点の気象観測

当レポートは36分前の03:00(UTC)に作成
の風 3kt
気温 6°C
湿度 87%
気圧 1020 hPa
視程10km以上
1,500メートル以下は雲なし、積乱雲なし

METAR: SAME 260300Z 18003KT CAVOK 06/04 Q1020

時間: 00:36 (03:36 UTC)

予報

当レポートは4時間36分前の23:00(UTC)に作成
予報は26日の 00時(UTC)から 26日の 24時(UTC)まで有効
南/南東の風 5kt
視程10km以上
高度4000ftの雲は散在している
高度8000ftの雲は散在している

TAF: SAME 252300Z 2600/2624 16005KT 9999 SCT040 SCT080 TX12/2620Z TN06/2610Z

4,000以上の空港の気象観測と天気予報(METAR報とTAF報)

利用可能な観測所は地図上に黄色い丸と赤い丸で示す。

丸の上にカーソルを重ねると観測所名を参照できる。

次にクリックすると気象観測と天気予報を参照できる。

マップの切り替え:黒色「×」印の緑ボタンをクリックして拡大、「-」印の緑ボタンをクリックして縮小、緑色の三角印をクリックして隣りの地図に切り替え


METAR-TAF: